Time;durP1;ratioP1;P1;durP2;ratioP2;P2;SDS_P1;SDS_P2;PMS_P1;PMS_P2;Temp;Humidity;BMP_temperature;BMP_pressure;BME280_temperature;BME280_humidity;BME280_pressure;Samples;Min_cycle;Max_cycle;Signal;HPM_P1;HPM_P2
2022/06/25 00:01:44;;;;;;;;;;;18.80;99.90;;;;;;5084562;27;39011;-54
2022/06/25 00:06:52;;;;;;;;;;;18.80;99.90;;;;;;5083303;27;39530;-62
2022/06/25 00:09:19;;;;;;;;;;;18.80;99.90;;;;;;5081425;27;36123;-62
2022/06/25 00:14:30;;;;;;;;;;;18.80;99.90;;;;;;5082548;27;41103;-62
2022/06/25 00:16:59;;;;;;;;;;;18.80;99.90;;;;;;5082877;27;36325;-62
2022/06/25 00:19:26;;;;;;;;;;;18.70;99.90;;;;;;5080545;27;35650;-62
2022/06/25 00:21:53;;;;;;;;;;;18.80;99.90;;;;;;5083030;27;37686;-62
2022/06/25 00:24:20;;;;;;;;;;;18.80;99.90;;;;;;5079915;27;37229;-62
2022/06/25 00:26:47;;;;;;;;;;;18.80;99.90;;;;;;5083353;27;37792;-62
2022/06/25 00:29:14;;;;;;;;;;;18.80;99.90;;;;;;5083397;27;35129;-61
2022/06/25 00:31:41;;;;;;;;;;;18.80;99.90;;;;;;5082384;27;40501;-61
2022/06/25 00:34:10;;;;;;;;;;;18.80;99.90;;;;;;5082812;27;38927;-62
2022/06/25 00:36:37;;;;;;;;;;;18.80;99.90;;;;;;5082164;27;38306;-61
2022/06/25 00:39:04;;;;;;;;;;;18.80;99.90;;;;;;5081945;27;40363;-62
2022/06/25 00:41:31;;;;;;;;;;;18.80;99.90;;;;;;5083448;27;37466;-62
2022/06/25 00:43:58;;;;;;;;;;;18.80;99.90;;;;;;5080852;27;37723;-61
2022/06/25 00:46:25;;;;;;;;;;;18.70;99.90;;;;;;5082243;27;39126;-62
2022/06/25 00:48:52;;;;;;;;;;;18.80;99.90;;;;;;5083368;27;36440;-62
2022/06/25 00:51:23;;;;;;;;;;;18.80;99.90;;;;;;5083169;27;39083;-62
2022/06/25 00:53:50;;;;;;;;;;;18.70;99.90;;;;;;5081311;27;41923;-62
2022/06/25 00:56:18;;;;;;;;;;;18.80;99.90;;;;;;5081444;27;36552;-61
2022/06/25 00:58:45;;;;;;;;;;;18.80;99.90;;;;;;5081632;27;36698;-62
2022/06/25 01:01:14;;;;;;;;;;;18.80;99.90;;;;;;5080729;27;36362;-62
2022/06/25 01:03:41;;;;;;;;;;;18.80;99.90;;;;;;5076192;27;38326;-61
2022/06/25 01:06:08;;;;;;;;;;;18.80;99.90;;;;;;5080776;27;37619;-61
2022/06/25 01:08:37;;;;;;;;;;;18.80;99.90;;;;;;5079926;27;37045;-61
2022/06/25 01:11:04;;;;;;;;;;;18.70;99.90;;;;;;5081226;27;37514;-61
2022/06/25 01:13:32;;;;;;;;;;;18.70;99.90;;;;;;5079338;27;37166;-62
2022/06/25 01:15:59;;;;;;;;;;;18.70;99.90;;;;;;5079651;27;36766;-62
2022/06/25 01:18:26;;;;;;;;;;;18.70;99.90;;;;;;5080801;27;35207;-61
2022/06/25 01:20:53;;;;;;;;;;;18.70;99.90;;;;;;5080987;27;37907;-62
2022/06/25 01:23:22;;;;;;;;;;;18.70;99.90;;;;;;5084892;27;38998;-62
2022/06/25 01:25:49;;;;;;;;;;;18.80;99.90;;;;;;5083129;27;37672;-62
2022/06/25 01:28:16;;;;;;;;;;;18.70;99.90;;;;;;5087144;27;36508;-61
2022/06/25 01:30:43;;;;;;;;;;;18.70;99.90;;;;;;5084179;27;37608;-62
2022/06/25 01:33:10;;;;;;;;;;;18.70;99.90;;;;;;5084832;27;38078;-62
2022/06/25 01:35:37;;;;;;;;;;;18.70;99.90;;;;;;5084837;27;38412;-62
2022/06/25 01:38:07;;;;;;;;;;;18.70;99.90;;;;;;5084959;27;35238;-61
2022/06/25 01:40:36;;;;;;;;;;;18.70;99.90;;;;;;5085670;27;37528;-62
2022/06/25 01:43:03;;;;;;;;;;;18.70;99.90;;;;;;5085413;27;39081;-62
2022/06/25 01:45:31;;;;;;;;;;;18.70;99.90;;;;;;5083536;27;36252;-62
2022/06/25 01:47:58;;;;;;;;;;;18.70;99.90;;;;;;5085127;27;36833;-62
2022/06/25 01:50:26;;;;;;;;;;;18.70;99.90;;;;;;5085421;27;37536;-61
2022/06/25 01:52:53;;;;;;;;;;;18.70;99.90;;;;;;5085825;27;38295;-62
2022/06/25 01:55:20;;;;;;;;;;;18.60;99.90;;;;;;5085249;27;37789;-61
2022/06/25 01:57:49;;;;;;;;;;;18.70;99.90;;;;;;5080111;27;35795;-61
2022/06/25 02:00:18;;;;;;;;;;;18.60;99.90;;;;;;5085119;27;38743;-62
2022/06/25 02:02:45;;;;;;;;;;;18.60;99.90;;;;;;5085149;27;38628;-62
2022/06/25 02:05:13;;;;;;;;;;;18.60;99.90;;;;;;5084274;27;37892;-61
2022/06/25 02:07:42;;;;;;;;;;;18.50;99.90;;;;;;5084299;27;31303;-62
2022/06/25 02:10:10;;;;;;;;;;;18.50;99.90;;;;;;5085293;27;37595;-62
2022/06/25 02:12:37;;;;;;;;;;;18.50;99.90;;;;;;5085152;27;37166;-61
2022/06/25 02:15:06;;;;;;;;;;;18.50;99.90;;;;;;5083950;27;38281;-61
2022/06/25 02:17:33;;;;;;;;;;;18.40;99.90;;;;;;5084702;27;36598;-62
2022/06/25 02:20:00;;;;;;;;;;;18.40;99.90;;;;;;5084676;27;37602;-62
2022/06/25 02:22:27;;;;;;;;;;;18.40;99.90;;;;;;5083587;27;42014;-61
2022/06/25 02:24:54;;;;;;;;;;;18.40;99.90;;;;;;5083506;27;38157;-61
2022/06/25 02:27:21;;;;;;;;;;;18.30;99.90;;;;;;5085220;27;36971;-61
2022/06/25 02:29:48;;;;;;;;;;;18.30;99.90;;;;;;5084924;27;38666;-61
2022/06/25 02:32:17;;;;;;;;;;;18.30;99.90;;;;;;5084455;27;37810;-61
2022/06/25 02:34:44;;;;;;;;;;;18.30;99.90;;;;;;5085420;27;37126;-62
2022/06/25 02:37:11;;;;;;;;;;;18.30;99.90;;;;;;5084410;27;37891;-61
2022/06/25 02:39:38;;;;;;;;;;;18.30;99.90;;;;;;5083861;27;37340;-61
2022/06/25 02:42:05;;;;;;;;;;;18.30;99.90;;;;;;5083409;27;38640;-61
2022/06/25 02:44:32;;;;;;;;;;;18.30;99.90;;;;;;5080066;27;36407;-61
2022/06/25 02:46:59;;;;;;;;;;;18.30;99.90;;;;;;5082397;27;36231;-62
2022/06/25 02:49:28;;;;;;;;;;;18.30;99.90;;;;;;5084884;28;37635;-62
2022/06/25 02:51:55;;;;;;;;;;;18.30;99.90;;;;;;5082680;27;37448;-61
2022/06/25 02:54:22;;;;;;;;;;;18.30;99.90;;;;;;5084278;27;38364;-61
2022/06/25 02:59:33;;;;;;;;;;;18.30;99.90;;;;;;5084586;27;39982;-62
2022/06/25 03:02:00;;;;;;;;;;;18.30;99.90;;;;;;5081857;27;39313;-62
2022/06/25 03:04:29;;;;;;;;;;;18.30;99.90;;;;;;5084200;27;38259;-61
2022/06/25 03:06:56;;;;;;;;;;;18.30;99.90;;;;;;5084003;27;36559;-62
2022/06/25 03:09:24;;;;;;;;;;;18.30;99.90;;;;;;5084287;27;38354;-61
2022/06/25 03:11:51;;;;;;;;;;;18.20;99.90;;;;;;5084362;27;38448;-61
2022/06/25 03:14:18;;;;;;;;;;;18.20;99.90;;;;;;5083990;27;37383;-61
2022/06/25 03:16:45;;;;;;;;;;;18.20;99.90;;;;;;5082681;27;35769;-61
2022/06/25 03:19:12;;;;;;;;;;;18.20;99.90;;;;;;5084297;27;38800;-61
2022/06/25 03:21:41;;;;;;;;;;;18.20;99.90;;;;;;5083547;27;36937;-62
2022/06/25 03:24:08;;;;;;;;;;;18.20;99.90;;;;;;5080908;27;36416;-62
2022/06/25 03:26:35;;;;;;;;;;;18.10;99.90;;;;;;5083346;27;37257;-62
2022/06/25 03:29:03;;;;;;;;;;;18.10;99.90;;;;;;5082580;27;38221;-61
2022/06/25 03:31:30;;;;;;;;;;;18.00;99.90;;;;;;5082883;27;39206;-61
2022/06/25 03:33:57;;;;;;;;;;;17.90;99.90;;;;;;5083643;27;38913;-62
2022/06/25 03:36:24;;;;;;;;;;;17.90;99.90;;;;;;5084732;27;36758;-61
2022/06/25 03:38:52;;;;;;;;;;;17.80;99.90;;;;;;5082435;27;39085;-61
2022/06/25 03:41:35;;;;;;;;;;;17.70;99.90;;;;;;5083552;27;38622;-61
2022/06/25 03:44:04;;;;;;;;;;;17.70;99.90;;;;;;5081525;27;38519;-61
2022/06/25 03:46:31;;;;;;;;;;;17.70;99.90;;;;;;5082779;27;34670;-62
2022/06/25 03:48:59;;;;;;;;;;;17.90;99.90;;;;;;5084645;27;37687;-61
2022/06/25 03:51:26;;;;;;;;;;;17.80;99.90;;;;;;5083177;27;41011;-61
2022/06/25 03:53:54;;;;;;;;;;;17.90;99.90;;;;;;5082948;27;36350;-61
2022/06/25 03:56:22;;;;;;;;;;;17.90;99.90;;;;;;5082479;27;35479;-61
2022/06/25 03:58:49;;;;;;;;;;;18.00;99.90;;;;;;5083017;27;40611;-60
2022/06/25 04:01:16;;;;;;;;;;;18.00;99.90;;;;;;5083639;27;39347;-61
2022/06/25 04:03:46;;;;;;;;;;;18.00;99.90;;;;;;5083438;28;36336;-62
2022/06/25 04:06:13;;;;;;;;;;;18.10;99.90;;;;;;5081738;27;36277;-61
2022/06/25 04:08:40;;;;;;;;;;;18.20;99.90;;;;;;5082094;27;37521;-53
2022/06/25 04:11:08;;;;;;;;;;;18.30;99.90;;;;;;5082016;27;39151;-53
2022/06/25 04:13:35;;;;;;;;;;;18.40;99.90;;;;;;5082018;27;37792;-52
2022/06/25 04:16:02;;;;;;;;;;;18.40;99.90;;;;;;5082079;28;36007;-53
2022/06/25 04:18:31;;;;;;;;;;;18.50;99.90;;;;;;5081976;27;39779;-53
2022/06/25 04:20:59;;;;;;;;;;;18.60;99.90;;;;;;5080526;27;40708;-52
2022/06/25 04:23:26;;;;;;;;;;;18.70;99.90;;;;;;5080985;27;37338;-52
2022/06/25 04:25:53;;;;;;;;;;;18.70;99.90;;;;;;5081357;27;37181;-52
2022/06/25 04:31:07;;;;;;;;;;;18.90;99.90;;;;;;5083343;27;39822;-54
2022/06/25 04:33:34;;;;;;;;;;;18.90;99.90;;;;;;5080506;27;36336;-53
2022/06/25 04:36:02;;;;;;;;;;;19.00;99.90;;;;;;5082293;27;36174;-54
2022/06/25 04:38:29;;;;;;;;;;;19.00;99.90;;;;;;5082262;27;36466;-53
2022/06/25 04:40:56;;;;;;;;;;;19.10;99.90;;;;;;5081495;27;39592;-53
2022/06/25 04:43:24;;;;;;;;;;;19.20;99.90;;;;;;5083633;27;36435;-54
2022/06/25 04:45:51;;;;;;;;;;;19.20;99.90;;;;;;5082682;27;37173;-53
2022/06/25 04:48:19;;;;;;;;;;;19.30;99.90;;;;;;5083621;27;37959;-53
2022/06/25 04:50:47;;;;;;;;;;;19.30;99.90;;;;;;5080689;27;38692;-54
2022/06/25 04:53:14;;;;;;;;;;;19.40;99.90;;;;;;5083898;27;37583;-54
2022/06/25 04:55:41;;;;;;;;;;;19.40;99.90;;;;;;5082291;27;37006;-54
2022/06/25 04:58:09;;;;;;;;;;;19.40;99.90;;;;;;5082629;27;39092;-54
2022/06/25 05:00:37;;;;;;;;;;;19.50;99.90;;;;;;5081717;27;37127;-53
2022/06/25 05:03:04;;;;;;;;;;;19.60;99.90;;;;;;5081961;27;36350;-53
2022/06/25 05:05:32;;;;;;;;;;;19.60;99.90;;;;;;5082316;27;37024;-53
2022/06/25 05:07:59;;;;;;;;;;;19.70;99.90;;;;;;5081291;27;37388;-53
2022/06/25 05:10:26;;;;;;;;;;;19.70;99.90;;;;;;5083850;27;39191;-54
2022/06/25 05:15:39;;;;;;;;;;;19.90;99.90;;;;;;5081662;27;38711;-52
2022/06/25 05:18:06;;;;;;;;;;;20.00;99.90;;;;;;5082019;27;37731;-54
2022/06/25 05:20:36;;;;;;;;;;;20.00;99.90;;;;;;5081850;27;39079;-53
2022/06/25 05:23:03;;;;;;;;;;;20.10;99.90;;;;;;5081962;27;38000;-53
2022/06/25 05:25:30;;;;;;;;;;;20.20;99.90;;;;;;5080570;27;36365;-54
2022/06/25 05:27:57;;;;;;;;;;;20.20;99.90;;;;;;5081341;28;36133;-53
2022/06/25 05:30:27;;;;;;;;;;;20.30;99.90;;;;;;5080600;27;39421;-54
2022/06/25 05:32:55;;;;;;;;;;;20.40;99.90;;;;;;5080017;27;37507;-54
2022/06/25 05:35:22;;;;;;;;;;;20.40;99.90;;;;;;5079252;27;36595;-54
2022/06/25 05:37:49;;;;;;;;;;;20.50;99.90;;;;;;5079552;27;36385;-53
2022/06/25 05:40:16;;;;;;;;;;;20.50;99.90;;;;;;5080509;27;41507;-54
2022/06/25 05:42:44;;;;;;;;;;;20.60;99.90;;;;;;5079678;27;37457;-54
2022/06/25 05:45:11;;;;;;;;;;;20.70;99.90;;;;;;5080183;27;37017;-53
2022/06/25 05:47:38;;;;;;;;;;;20.70;99.90;;;;;;5080992;27;40747;-53
2022/06/25 05:50:08;;;;;;;;;;;20.80;99.90;;;;;;5083165;27;37455;-53
2022/06/25 05:52:35;;;;;;;;;;;20.80;99.90;;;;;;5079483;27;37663;-54
2022/06/25 05:55:02;;;;;;;;;;;20.90;99.90;;;;;;5079990;27;36519;-54
2022/06/25 05:57:29;;;;;;;;;;;21.00;99.90;;;;;;5081720;27;37470;-54
2022/06/25 05:59:57;;;;;;;;;;;21.10;99.90;;;;;;5080589;27;39030;-54
2022/06/25 06:02:26;;;;;;;;;;;21.10;99.90;;;;;;5080604;27;38786;-54
2022/06/25 06:04:53;;;;;;;;;;;21.20;99.90;;;;;;5079160;27;35884;-53
2022/06/25 06:07:22;;;;;;;;;;;21.30;99.90;;;;;;5081814;27;37479;-53
2022/06/25 06:09:49;;;;;;;;;;;21.30;99.90;;;;;;5084221;27;38600;-54
2022/06/25 06:12:16;;;;;;;;;;;21.40;99.90;;;;;;5083877;27;37625;-54
2022/06/25 06:14:44;;;;;;;;;;;21.40;99.90;;;;;;5085125;27;36942;-53
2022/06/25 06:17:11;;;;;;;;;;;21.50;99.90;;;;;;5085210;27;37886;-54
2022/06/25 06:19:38;;;;;;;;;;;21.50;99.90;;;;;;5084142;27;37998;-54
2022/06/25 06:22:05;;;;;;;;;;;21.60;99.90;;;;;;5083500;27;37730;-54
2022/06/25 06:24:33;;;;;;;;;;;21.70;99.90;;;;;;5085356;27;35260;-53
2022/06/25 06:27:01;;;;;;;;;;;21.80;99.90;;;;;;5085117;27;36500;-53
2022/06/25 06:29:28;;;;;;;;;;;21.90;99.90;;;;;;5085637;27;38675;-52
2022/06/25 06:31:55;;;;;;;;;;;21.90;99.90;;;;;;5082892;27;37489;-53
2022/06/25 06:34:22;;;;;;;;;;;21.90;99.90;;;;;;5085072;27;36455;-53
2022/06/25 06:36:49;;;;;;;;;;;21.80;99.90;;;;;;5082932;27;37875;-53
2022/06/25 06:39:16;;;;;;;;;;;21.90;99.90;;;;;;5085070;27;37721;-53
2022/06/25 06:41:45;;;;;;;;;;;22.00;99.90;;;;;;5084339;27;37565;-54
2022/06/25 06:44:13;;;;;;;;;;;22.00;99.90;;;;;;5082278;27;36528;-53
2022/06/25 06:46:40;;;;;;;;;;;22.00;99.90;;;;;;5081453;27;38799;-54
2022/06/25 06:49:07;;;;;;;;;;;22.10;99.90;;;;;;5085220;27;37661;-54
2022/06/25 06:51:34;;;;;;;;;;;22.10;99.90;;;;;;5083006;27;37827;-54
2022/06/25 06:54:01;;;;;;;;;;;22.10;99.90;;;;;;5084367;27;36280;-55
2022/06/25 06:56:28;;;;;;;;;;;22.20;99.90;;;;;;5084555;27;39263;-54
2022/06/25 06:58:57;;;;;;;;;;;22.30;99.90;;;;;;5082735;27;38270;-54
2022/06/25 07:01:24;;;;;;;;;;;22.30;99.90;;;;;;5082846;27;36572;-62
2022/06/25 07:03:51;;;;;;;;;;;22.30;99.90;;;;;;5083698;27;36587;-62
2022/06/25 07:06:18;;;;;;;;;;;22.30;99.90;;;;;;5085284;27;37551;-62
2022/06/25 07:08:46;;;;;;;;;;;22.30;99.90;;;;;;5080726;27;37850;-62
2022/06/25 07:13:54;;;;;;;;;;;22.20;99.90;;;;;;5080665;27;36895;-62
2022/06/25 07:16:22;;;;;;;;;;;22.20;99.90;;;;;;5081181;27;37771;-62
2022/06/25 07:18:50;;;;;;;;;;;22.30;99.90;;;;;;5082263;27;39725;-62
2022/06/25 07:21:17;;;;;;;;;;;22.30;99.90;;;;;;5083201;28;37108;-62
2022/06/25 07:23:44;;;;;;;;;;;22.30;99.90;;;;;;5082753;27;36951;-62
2022/06/25 07:26:11;;;;;;;;;;;22.40;99.90;;;;;;5085470;27;37546;-62
2022/06/25 07:28:38;;;;;;;;;;;22.40;99.90;;;;;;5083446;28;39735;-62
2022/06/25 07:31:05;;;;;;;;;;;22.40;99.90;;;;;;5082999;27;36404;-63
2022/06/25 07:33:34;;;;;;;;;;;22.40;99.90;;;;;;5081367;27;37056;-62
2022/06/25 07:36:02;;;;;;;;;;;22.40;99.90;;;;;;5084832;27;37989;-62
2022/06/25 07:38:29;;;;;;;;;;;22.50;99.90;;;;;;5084950;27;39032;-62
2022/06/25 07:40:56;;;;;;;;;;;22.50;99.90;;;;;;5084596;27;37986;-62
2022/06/25 07:43:24;;;;;;;;;;;22.50;99.90;;;;;;5084026;27;37357;-62
2022/06/25 07:45:51;;;;;;;;;;;22.50;99.90;;;;;;5083505;27;38219;-62
2022/06/25 07:48:19;;;;;;;;;;;22.50;99.90;;;;;;5084303;27;37866;-62
2022/06/25 07:53:32;;;;;;;;;;;22.50;99.90;;;;;;5084459;28;36245;-62
2022/06/25 07:55:59;;;;;;;;;;;22.60;99.90;;;;;;5081827;27;38004;-62
2022/06/25 07:58:26;;;;;;;;;;;22.70;99.90;;;;;;5082627;27;38349;-62
2022/06/25 08:00:53;;;;;;;;;;;22.70;99.90;;;;;;5083411;27;38099;-62
2022/06/25 08:03:21;;;;;;;;;;;22.70;99.90;;;;;;5082395;27;37220;-62
2022/06/25 08:05:49;;;;;;;;;;;22.80;99.90;;;;;;5081332;27;38329;-62
2022/06/25 08:08:16;;;;;;;;;;;22.70;99.90;;;;;;5083959;27;39521;-62
2022/06/25 08:10:45;;;;;;;;;;;22.70;99.90;;;;;;5083414;27;37700;-62
2022/06/25 08:13:13;;;;;;;;;;;22.80;99.90;;;;;;5083660;27;36600;-62
2022/06/25 08:15:40;;;;;;;;;;;22.80;99.90;;;;;;5083979;27;38058;-62
2022/06/25 08:18:07;;;;;;;;;;;22.90;99.90;;;;;;5083846;27;38827;-62
2022/06/25 08:20:34;;;;;;;;;;;22.90;99.90;;;;;;5082741;27;38249;-62
2022/06/25 08:23:02;;;;;;;;;;;22.80;99.90;;;;;;5080880;28;36346;-62
2022/06/25 08:25:29;;;;;;;;;;;22.90;99.90;;;;;;5080223;27;37489;-62
2022/06/25 08:27:56;;;;;;;;;;;22.80;99.90;;;;;;5082545;27;38553;-61
2022/06/25 08:30:24;;;;;;;;;;;22.70;99.90;;;;;;5082991;27;37342;-61
2022/06/25 08:32:51;;;;;;;;;;;22.60;99.90;;;;;;5082539;27;36643;-61
2022/06/25 08:35:18;;;;;;;;;;;22.50;99.90;;;;;;5083397;27;38426;-61
2022/06/25 08:37:46;;;;;;;;;;;22.50;99.90;;;;;;5080896;27;38692;-61
2022/06/25 08:40:15;;;;;;;;;;;22.40;99.90;;;;;;5083238;27;37577;-60
2022/06/25 08:42:42;;;;;;;;;;;22.40;99.90;;;;;;5080695;27;37964;-61
2022/06/25 08:45:09;;;;;;;;;;;22.40;99.90;;;;;;5080629;27;38169;-61
2022/06/25 08:47:42;;;;;;;;;;;22.40;99.90;;;;;;5081527;27;38052;-61
2022/06/25 08:50:10;;;;;;;;;;;22.30;99.90;;;;;;5083151;27;37844;-61
2022/06/25 08:52:37;;;;;;;;;;;22.30;99.90;;;;;;5079557;27;37786;-61
2022/06/25 08:55:06;;;;;;;;;;;22.30;99.90;;;;;;5081405;27;38386;-60
2022/06/25 08:57:34;;;;;;;;;;;22.40;99.90;;;;;;5081761;27;39013;-59
2022/06/25 09:00:01;;;;;;;;;;;22.60;99.90;;;;;;5082879;27;38336;-61
2022/06/25 09:02:28;;;;;;;;;;;22.80;99.90;;;;;;5080698;27;36629;-60
2022/06/25 09:04:55;;;;;;;;;;;23.00;98.80;;;;;;5081018;28;38564;-61
2022/06/25 09:07:22;;;;;;;;;;;23.10;99.90;;;;;;5080646;27;37062;-61
2022/06/25 09:09:50;;;;;;;;;;;23.30;99.90;;;;;;5081519;27;39182;-61
2022/06/25 09:12:18;;;;;;;;;;;23.30;99.90;;;;;;5083365;27;37115;-61
2022/06/25 09:14:46;;;;;;;;;;;23.20;99.90;;;;;;5081237;27;37612;-61
2022/06/25 09:17:14;;;;;;;;;;;23.10;99.90;;;;;;5080505;27;38313;-61
2022/06/25 09:19:42;;;;;;;;;;;23.10;99.70;;;;;;5082645;27;36458;-61
2022/06/25 09:22:10;;;;;;;;;;;23.20;99.50;;;;;;5081391;27;36001;-61
2022/06/25 09:24:45;;;;;;;;;;;23.20;98.20;;;;;;5081098;27;38797;-61
2022/06/25 09:27:12;;;;;;;;;;;23.30;99.50;;;;;;5082162;27;39007;-61
2022/06/25 09:29:40;;;;;;;;;;;23.30;98.10;;;;;;5082323;27;37714;-61
2022/06/25 09:32:09;;;;;;;;;;;23.40;99.10;;;;;;5082128;27;37644;-61
2022/06/25 09:34:37;;;;;;;;;;;23.40;99.50;;;;;;5081322;27;37902;-61
2022/06/25 09:37:17;;;;;;;;;;;23.30;98.00;;;;;;5081276;27;38264;-61
2022/06/25 09:39:45;;;;;;;;;;;23.20;98.50;;;;;;5080940;27;37420;-61
2022/06/25 09:42:19;;;;;;;;;;;23.20;98.20;;;;;;5082974;27;37015;-61
2022/06/25 09:44:46;;;;;;;;;;;23.40;97.90;;;;;;5085421;27;36862;-61
2022/06/25 09:47:15;;;;;;;;;;;23.50;99.80;;;;;;5084840;27;39036;-61
2022/06/25 09:49:42;;;;;;;;;;;23.70;99.00;;;;;;5085668;27;39810;-61
2022/06/25 09:52:11;;;;;;;;;;;23.70;98.40;;;;;;5084831;27;38866;-61
2022/06/25 09:54:38;;;;;;;;;;;23.70;98.60;;;;;;5083353;28;36358;-61
2022/06/25 09:57:06;;;;;;;;;;;23.70;98.60;;;;;;5085531;27;39714;-61
2022/06/25 09:59:34;;;;;;;;;;;23.50;98.40;;;;;;5085036;27;38286;-61
2022/06/25 10:02:02;;;;;;;;;;;23.40;98.10;;;;;;5085085;27;35278;-61
2022/06/25 10:04:31;;;;;;;;;;;23.30;98.20;;;;;;5083423;28;36583;-61
2022/06/25 10:07:02;;;;;;;;;;;23.20;98.10;;;;;;5083834;27;39338;-61
2022/06/25 10:09:29;;;;;;;;;;;23.10;98.10;;;;;;5083572;27;39214;-61
2022/06/25 10:11:56;;;;;;;;;;;23.00;98.90;;;;;;5084887;27;36835;-61
2022/06/25 10:14:24;;;;;;;;;;;23.00;99.00;;;;;;5085621;28;37500;-61
2022/06/25 10:16:52;;;;;;;;;;;22.90;99.00;;;;;;5084992;27;37139;-61
2022/06/25 10:19:21;;;;;;;;;;;22.90;98.70;;;;;;5085736;27;38031;-61
2022/06/25 10:21:49;;;;;;;;;;;23.00;99.50;;;;;;5086030;27;37271;-61
2022/06/25 10:24:16;;;;;;;;;;;23.10;99.20;;;;;;5083677;27;38212;-61
2022/06/25 10:26:43;;;;;;;;;;;23.10;99.70;;;;;;5084959;27;38425;-61
2022/06/25 10:29:24;;;;;;;;;;;23.20;98.30;;;;;;5086162;27;37332;-61
2022/06/25 10:31:51;;;;;;;;;;;23.30;98.70;;;;;;5086134;27;38141;-61
2022/06/25 10:34:18;;;;;;;;;;;23.50;99.40;;;;;;5086574;27;37378;-61
2022/06/25 10:36:47;;;;;;;;;;;23.70;99.70;;;;;;5086751;27;37167;-61
2022/06/25 10:39:32;;;;;;;;;;;23.70;98.40;;;;;;5083986;27;37380;-61
2022/06/25 10:45:29;;;;;;;;;;;23.60;98.40;;;;;;5082899;28;39668;-61
2022/06/25 10:47:57;;;;;;;;;;;23.40;98.40;;;;;;5084816;27;39475;-61
2022/06/25 10:50:29;;;;;;;;;;;23.30;98.70;;;;;;5085238;27;38630;-61
2022/06/25 10:53:15;;;;;;;;;;;23.20;98.60;;;;;;5083333;27;37024;-61
2022/06/25 10:55:58;;;;;;;;;;;23.00;98.60;;;;;;5081278;27;37342;-61
2022/06/25 10:58:27;;;;;;;;;;;22.90;98.60;;;;;;5084931;28;40897;-61
2022/06/25 11:00:55;;;;;;;;;;;22.90;99.10;;;;;;5083956;27;36412;-61
2022/06/25 11:03:36;;;;;;;;;;;22.80;98.70;;;;;;5084415;27;35717;-61
2022/06/25 11:06:17;;;;;;;;;;;22.70;99.20;;;;;;5084718;27;37524;-61
2022/06/25 11:08:45;;;;;;;;;;;22.60;99.20;;;;;;5084936;27;38173;-61
2022/06/25 11:11:12;;;;;;;;;;;22.50;99.60;;;;;;5084925;27;37222;-61
2022/06/25 11:13:41;;;;;;;;;;;22.50;99.80;;;;;;5084614;27;37011;-61
2022/06/25 11:16:15;;;;;;;;;;;22.40;99.70;;;;;;5084997;27;37648;-61
2022/06/25 11:18:48;;;;;;;;;;;22.30;99.90;;;;;;5084337;27;39574;-61
2022/06/25 11:21:25;;;;;;;;;;;22.30;99.90;;;;;;5081668;27;39296;-61
2022/06/25 11:23:52;;;;;;;;;;;22.20;99.90;;;;;;5088425;27;35870;-61
2022/06/25 11:29:06;;;;;;;;;;;22.10;99.90;;;;;;5085171;28;39477;-61
2022/06/25 11:31:33;;;;;;;;;;;22.20;99.90;;;;;;5102683;28;37727;-61
2022/06/25 11:34:02;;;;;;;;;;;22.40;99.90;;;;;;5080945;27;38862;-60
2022/06/25 11:36:32;;;;;;;;;;;22.60;99.90;;;;;;5082168;27;37569;-61
2022/06/25 11:38:59;;;;;;;;;;;22.90;99.90;;;;;;5083807;27;37024;-61
2022/06/25 11:41:29;;;;;;;;;;;23.20;99.90;;;;;;5084705;27;39892;-61
2022/06/25 11:44:04;;;;;;;;;;;23.30;99.00;;;;;;5088732;27;34971;-61
2022/06/25 11:46:33;;;;;;;;;;;23.40;99.90;;;;;;5089852;27;38611;-62
2022/06/25 11:49:03;;;;;;;;;;;23.40;99.50;;;;;;5089492;27;40146;-61
2022/06/25 11:51:31;;;;;;;;;;;23.20;99.40;;;;;;5089419;28;36340;-61
2022/06/25 11:54:03;;;;;;;;;;;23.10;99.00;;;;;;5088806;27;36586;-61
2022/06/25 11:56:30;;;;;;;;;;;23.00;99.30;;;;;;5089462;28;37317;-61
2022/06/25 11:58:57;;;;;;;;;;;22.90;99.80;;;;;;5089132;27;39048;-61
2022/06/25 12:01:27;;;;;;;;;;;22.80;99.60;;;;;;5089420;27;36388;-61
2022/06/25 12:03:56;;;;;;;;;;;22.80;99.80;;;;;;5088936;27;37928;-61
2022/06/25 12:06:23;;;;;;;;;;;22.80;99.90;;;;;;5087883;27;37964;-61
2022/06/25 12:08:50;;;;;;;;;;;22.70;99.90;;;;;;5089110;27;37141;-61
2022/06/25 12:11:17;;;;;;;;;;;22.60;99.90;;;;;;5087839;27;38318;-60
2022/06/25 12:13:45;;;;;;;;;;;22.60;99.80;;;;;;5085836;27;36872;-61
2022/06/25 12:16:12;;;;;;;;;;;22.50;99.90;;;;;;5087875;27;38376;-61
2022/06/25 12:18:40;;;;;;;;;;;22.50;99.90;;;;;;5085431;27;38560;-61
2022/06/25 12:21:09;;;;;;;;;;;22.40;99.90;;;;;;5085736;27;38761;-61
2022/06/25 12:23:49;;;;;;;;;;;22.40;99.40;;;;;;5087135;27;36068;-61
2022/06/25 12:26:23;;;;;;;;;;;22.30;99.90;;;;;;5087246;28;37584;-61
2022/06/25 12:28:50;;;;;;;;;;;22.20;99.90;;;;;;5087355;27;39063;-61
2022/06/25 12:31:18;;;;;;;;;;;22.10;99.70;;;;;;5082163;27;37847;-61
2022/06/25 12:33:48;;;;;;;;;;;22.10;99.70;;;;;;5085294;27;36514;-61
2022/06/25 12:36:18;;;;;;;;;;;22.00;99.70;;;;;;5088168;28;37644;-61
2022/06/25 12:38:45;;;;;;;;;;;22.00;99.90;;;;;;5087730;27;39330;-61
2022/06/25 12:41:12;;;;;;;;;;;21.90;99.90;;;;;;5086593;27;36309;-61
2022/06/25 12:43:46;;;;;;;;;;;21.80;99.90;;;;;;5088792;27;36340;-61
2022/06/25 12:46:13;;;;;;;;;;;21.70;99.90;;;;;;5089017;27;39054;-61
2022/06/25 12:48:40;;;;;;;;;;;21.60;99.90;;;;;;5088709;27;38503;-61
2022/06/25 12:51:09;;;;;;;;;;;21.60;99.90;;;;;;5088340;27;38270;-61
2022/06/25 12:53:37;;;;;;;;;;;21.50;99.90;;;;;;5088438;27;37619;-61
2022/06/25 12:56:05;;;;;;;;;;;21.50;99.90;;;;;;5088107;27;37721;-60
2022/06/25 12:58:36;;;;;;;;;;;21.50;99.90;;;;;;5088205;27;38215;-61
2022/06/25 13:01:17;;;;;;;;;;;21.40;99.90;;;;;;5088284;27;38513;-61
2022/06/25 13:03:44;;;;;;;;;;;21.40;99.90;;;;;;5088112;27;37713;-60
2022/06/25 13:06:12;;;;;;;;;;;21.40;99.90;;;;;;5088181;27;37120;-61
2022/06/25 13:08:40;;;;;;;;;;;21.40;99.90;;;;;;5087398;28;38924;-61
2022/06/25 13:11:08;;;;;;;;;;;21.40;99.90;;;;;;5088303;27;37735;-61
2022/06/25 13:13:35;;;;;;;;;;;21.40;99.90;;;;;;5088350;27;35309;-61
2022/06/25 13:16:04;;;;;;;;;;;21.40;99.90;;;;;;5087436;27;38855;-61
2022/06/25 13:18:31;;;;;;;;;;;21.40;99.90;;;;;;5090424;27;36952;-61
2022/06/25 13:20:58;;;;;;;;;;;21.40;99.90;;;;;;5089253;27;39350;-61
2022/06/25 13:23:25;;;;;;;;;;;21.40;99.90;;;;;;5091283;27;35500;-61
2022/06/25 13:25:54;;;;;;;;;;;21.30;99.90;;;;;;5091242;27;38764;-60
2022/06/25 13:28:21;;;;;;;;;;;21.30;99.90;;;;;;5091138;27;38503;-61
2022/06/25 13:30:48;;;;;;;;;;;21.40;99.90;;;;;;5091884;27;37935;-61
2022/06/25 13:33:15;;;;;;;;;;;21.40;99.90;;;;;;5091390;27;37136;-60
2022/06/25 13:35:42;;;;;;;;;;;21.40;99.90;;;;;;5092457;27;37846;-61
2022/06/25 13:38:09;;;;;;;;;;;21.40;99.90;;;;;;5091864;27;37815;-61
2022/06/25 13:40:36;;;;;;;;;;;21.40;99.90;;;;;;5092000;27;38465;-61
2022/06/25 13:43:05;;;;;;;;;;;21.40;99.90;;;;;;5090592;27;36995;-61
2022/06/25 13:45:32;;;;;;;;;;;21.30;99.90;;;;;;5090159;27;37815;-60
2022/06/25 13:47:59;;;;;;;;;;;21.20;99.90;;;;;;5091345;27;39193;-61
2022/06/25 13:50:26;;;;;;;;;;;21.30;99.90;;;;;;5092500;27;37094;-61
2022/06/25 13:52:53;;;;;;;;;;;21.20;99.90;;;;;;5090658;27;38235;-60
2022/06/25 13:55:20;;;;;;;;;;;21.20;99.90;;;;;;5091022;27;37960;-61
2022/06/25 13:57:47;;;;;;;;;;;21.10;99.90;;;;;;5091507;27;38695;-60
2022/06/25 14:00:16;;;;;;;;;;;21.10;99.90;;;;;;5091045;27;40821;-61
2022/06/25 14:02:45;;;;;;;;;;;21.10;99.90;;;;;;5090339;27;35140;-61
2022/06/25 14:05:12;;;;;;;;;;;21.10;99.90;;;;;;5089936;27;37290;-61
2022/06/25 14:07:39;;;;;;;;;;;21.10;99.90;;;;;;5090993;27;39185;-61
2022/06/25 14:10:07;;;;;;;;;;;21.00;99.90;;;;;;5090810;27;37562;-61
2022/06/25 14:12:34;;;;;;;;;;;21.10;99.90;;;;;;5089297;27;38455;-61
2022/06/25 14:15:01;;;;;;;;;;;21.10;99.90;;;;;;5091032;27;37952;-61
2022/06/25 14:17:29;;;;;;;;;;;21.20;99.90;;;;;;5090801;27;37125;-61
2022/06/25 14:19:57;;;;;;;;;;;21.20;99.90;;;;;;5090349;27;38375;-61
2022/06/25 14:22:24;;;;;;;;;;;21.30;99.90;;;;;;5090558;27;36075;-61
2022/06/25 14:27:35;;;;;;;;;;;21.30;99.90;;;;;;5090823;28;40610;-60
2022/06/25 14:30:02;;;;;;;;;;;21.40;99.90;;;;;;5088434;27;36855;-61
2022/06/25 14:32:31;;;;;;;;;;;21.40;99.90;;;;;;5091279;27;36406;-60
2022/06/25 14:34:58;;;;;;;;;;;21.40;99.90;;;;;;5090441;27;39782;-60
2022/06/25 14:42:55;;;;;;;;;;;21.40;99.90;;;;;;5091435;28;36263;-61
2022/06/25 14:45:22;;;;;;;;;;;21.40;99.90;;;;;;5091260;27;37746;-60
2022/06/25 14:47:50;;;;;;;;;;;21.50;99.90;;;;;;5088355;28;38390;-60
2022/06/25 14:50:17;;;;;;;;;;;21.50;99.90;;;;;;5089378;27;36431;-60
2022/06/25 14:52:45;;;;;;;;;;;21.50;99.90;;;;;;5089699;27;36127;-60
2022/06/25 14:55:12;;;;;;;;;;;21.50;99.90;;;;;;5088661;27;40252;-60